sensor_id;sensor_type;location;lat;lon;timestamp;P1;durP1;ratioP1;P2;durP2;ratioP2
53108;SDS011;39007;53.090;6.074;2022-12-29T00:01:59;6.38;;;4.95;;
53108;SDS011;39007;53.090;6.074;2022-12-29T00:04:25;7.95;;;4.10;;
53108;SDS011;39007;53.090;6.074;2022-12-29T00:06:52;5.82;;;3.47;;
53108;SDS011;39007;53.090;6.074;2022-12-29T00:09:19;7.35;;;4.13;;
53108;SDS011;39007;53.090;6.074;2022-12-29T00:11:45;5.00;;;3.80;;
53108;SDS011;39007;53.090;6.074;2022-12-29T00:14:11;5.72;;;3.85;;
53108;SDS011;39007;53.090;6.074;2022-12-29T00:16:56;5.50;;;3.40;;
53108;SDS011;39007;53.090;6.074;2022-12-29T00:19:22;7.43;;;3.65;;
53108;SDS011;39007;53.090;6.074;2022-12-29T00:22:10;5.88;;;3.28;;
53108;SDS011;39007;53.090;6.074;2022-12-29T00:24:56;5.97;;;4.03;;
53108;SDS011;39007;53.090;6.074;2022-12-29T00:27:25;7.00;;;3.90;;
53108;SDS011;39007;53.090;6.074;2022-12-29T00:30:10;5.80;;;3.97;;
53108;SDS011;39007;53.090;6.074;2022-12-29T00:32:55;5.25;;;3.70;;
53108;SDS011;39007;53.090;6.074;2022-12-29T00:35:44;5.85;;;3.80;;
53108;SDS011;39007;53.090;6.074;2022-12-29T00:38:11;5.15;;;3.90;;
53108;SDS011;39007;53.090;6.074;2022-12-29T00:40:56;5.70;;;3.88;;
53108;SDS011;39007;53.090;6.074;2022-12-29T00:43:41;6.25;;;3.75;;
53108;SDS011;39007;53.090;6.074;2022-12-29T00:46:26;5.72;;;3.60;;
53108;SDS011;39007;53.090;6.074;2022-12-29T00:48:52;6.90;;;3.55;;
53108;SDS011;39007;53.090;6.074;2022-12-29T00:51:37;4.82;;;3.47;;
53108;SDS011;39007;53.090;6.074;2022-12-29T00:54:03;6.88;;;3.60;;
53108;SDS011;39007;53.090;6.074;2022-12-29T00:56:29;6.20;;;3.78;;
53108;SDS011;39007;53.090;6.074;2022-12-29T00:58:55;5.82;;;3.47;;
53108;SDS011;39007;53.090;6.074;2022-12-29T01:01:21;6.10;;;3.80;;
53108;SDS011;39007;53.090;6.074;2022-12-29T01:03:47;4.95;;;3.60;;
53108;SDS011;39007;53.090;6.074;2022-12-29T01:06:14;6.30;;;3.55;;
53108;SDS011;39007;53.090;6.074;2022-12-29T01:08:40;6.40;;;3.75;;
53108;SDS011;39007;53.090;6.074;2022-12-29T01:11:10;5.30;;;3.67;;
53108;SDS011;39007;53.090;6.074;2022-12-29T01:13:36;6.63;;;3.35;;
53108;SDS011;39007;53.090;6.074;2022-12-29T01:16:03;5.63;;;3.33;;
53108;SDS011;39007;53.090;6.074;2022-12-29T01:18:30;5.53;;;3.28;;
53108;SDS011;39007;53.090;6.074;2022-12-29T01:21:03;5.47;;;3.40;;
53108;SDS011;39007;53.090;6.074;2022-12-29T01:23:30;8.40;;;4.03;;
53108;SDS011;39007;53.090;6.074;2022-12-29T01:25:56;5.15;;;3.67;;
53108;SDS011;39007;53.090;6.074;2022-12-29T01:28:23;6.85;;;3.67;;
53108;SDS011;39007;53.090;6.074;2022-12-29T01:30:49;7.03;;;3.97;;
53108;SDS011;39007;53.090;6.074;2022-12-29T01:33:15;7.93;;;4.10;;
53108;SDS011;39007;53.090;6.074;2022-12-29T01:35:41;8.85;;;4.47;;
53108;SDS011;39007;53.090;6.074;2022-12-29T01:38:07;7.00;;;5.10;;
53108;SDS011;39007;53.090;6.074;2022-12-29T01:40:33;6.43;;;4.25;;
53108;SDS011;39007;53.090;6.074;2022-12-29T01:42:59;7.57;;;4.60;;
53108;SDS011;39007;53.090;6.074;2022-12-29T01:45:25;7.57;;;4.78;;
53108;SDS011;39007;53.090;6.074;2022-12-29T01:47:53;6.38;;;4.32;;
53108;SDS011;39007;53.090;6.074;2022-12-29T01:50:24;8.02;;;4.43;;
53108;SDS011;39007;53.090;6.074;2022-12-29T01:53:05;9.68;;;5.07;;
53108;SDS011;39007;53.090;6.074;2022-12-29T01:55:34;7.25;;;4.90;;
53108;SDS011;39007;53.090;6.074;2022-12-29T01:58:01;7.88;;;5.05;;
53108;SDS011;39007;53.090;6.074;2022-12-29T02:00:27;9.23;;;5.43;;
53108;SDS011;39007;53.090;6.074;2022-12-29T02:02:54;9.35;;;5.90;;
53108;SDS011;39007;53.090;6.074;2022-12-29T02:05:25;6.25;;;4.88;;
53108;SDS011;39007;53.090;6.074;2022-12-29T02:07:53;7.97;;;4.40;;
53108;SDS011;39007;53.090;6.074;2022-12-29T02:10:23;7.20;;;4.43;;
53108;SDS011;39007;53.090;6.074;2022-12-29T02:12:50;6.75;;;4.95;;
53108;SDS011;39007;53.090;6.074;2022-12-29T02:15:17;6.50;;;4.90;;
53108;SDS011;39007;53.090;6.074;2022-12-29T02:31:17;7.55;;;3.65;;
53108;SDS011;39007;53.090;6.074;2022-12-29T02:34:35;6.88;;;3.50;;
53108;SDS011;39007;53.090;6.074;2022-12-29T02:36:52;7.20;;;3.15;;
53108;SDS011;39007;53.090;6.074;2022-12-29T02:39:23;6.43;;;3.15;;
53108;SDS011;39007;53.090;6.074;2022-12-29T02:49:34;4.47;;;1.90;;
53108;SDS011;39007;53.090;6.074;2022-12-29T02:52:18;3.70;;;1.70;;
53108;SDS011;39007;53.090;6.074;2022-12-29T02:54:47;5.20;;;2.20;;
53108;SDS011;39007;53.090;6.074;2022-12-29T02:57:14;3.90;;;1.90;;
53108;SDS011;39007;53.090;6.074;2022-12-29T02:59:41;5.05;;;1.80;;
53108;SDS011;39007;53.090;6.074;2022-12-29T03:04:55;4.70;;;1.77;;
53108;SDS011;39007;53.090;6.074;2022-12-29T03:10:17;4.97;;;1.90;;
53108;SDS011;39007;53.090;6.074;2022-12-29T03:18:32;5.95;;;1.90;;
53108;SDS011;39007;53.090;6.074;2022-12-29T03:21:02;4.88;;;1.70;;
53108;SDS011;39007;53.090;6.074;2022-12-29T03:23:29;6.68;;;2.03;;
53108;SDS011;39007;53.090;6.074;2022-12-29T03:25:57;6.05;;;1.88;;
53108;SDS011;39007;53.090;6.074;2022-12-29T03:28:26;5.63;;;1.80;;
53108;SDS011;39007;53.090;6.074;2022-12-29T03:30:54;6.68;;;2.03;;
53108;SDS011;39007;53.090;6.074;2022-12-29T03:33:21;6.15;;;1.73;;
53108;SDS011;39007;53.090;6.074;2022-12-29T03:35:54;6.45;;;1.95;;
53108;SDS011;39007;53.090;6.074;2022-12-29T03:40:59;6.30;;;1.80;;
53108;SDS011;39007;53.090;6.074;2022-12-29T03:43:28;5.57;;;1.77;;
53108;SDS011;39007;53.090;6.074;2022-12-29T03:45:57;5.07;;;1.92;;
53108;SDS011;39007;53.090;6.074;2022-12-29T03:48:29;8.15;;;2.03;;
53108;SDS011;39007;53.090;6.074;2022-12-29T03:50:58;7.07;;;2.25;;
53108;SDS011;39007;53.090;6.074;2022-12-29T03:53:24;7.70;;;1.80;;
53108;SDS011;39007;53.090;6.074;2022-12-29T03:55:57;7.18;;;2.28;;
53108;SDS011;39007;53.090;6.074;2022-12-29T03:58:27;5.22;;;1.95;;
53108;SDS011;39007;53.090;6.074;2022-12-29T04:00:54;5.65;;;1.77;;
53108;SDS011;39007;53.090;6.074;2022-12-29T04:03:20;6.43;;;1.77;;
53108;SDS011;39007;53.090;6.074;2022-12-29T04:05:46;5.35;;;1.70;;
53108;SDS011;39007;53.090;6.074;2022-12-29T04:08:12;7.68;;;1.70;;
53108;SDS011;39007;53.090;6.074;2022-12-29T04:10:38;8.43;;;2.15;;
53108;SDS011;39007;53.090;6.074;2022-12-29T04:13:05;6.38;;;1.67;;
53108;SDS011;39007;53.090;6.074;2022-12-29T04:15:31;9.90;;;1.98;;
53108;SDS011;39007;53.090;6.074;2022-12-29T04:17:57;8.70;;;2.03;;
53108;SDS011;39007;53.090;6.074;2022-12-29T04:20:23;7.72;;;2.22;;
53108;SDS011;39007;53.090;6.074;2022-12-29T04:23:08;9.10;;;2.00;;
53108;SDS011;39007;53.090;6.074;2022-12-29T04:25:34;4.85;;;1.40;;
53108;SDS011;39007;53.090;6.074;2022-12-29T04:28:00;9.50;;;2.30;;
53108;SDS011;39007;53.090;6.074;2022-12-29T04:30:26;9.20;;;1.95;;
53108;SDS011;39007;53.090;6.074;2022-12-29T04:32:52;12.30;;;2.10;;
53108;SDS011;39007;53.090;6.074;2022-12-29T04:35:18;11.48;;;2.22;;
53108;SDS011;39007;53.090;6.074;2022-12-29T04:37:44;6.18;;;2.17;;
53108;SDS011;39007;53.090;6.074;2022-12-29T04:40:11;9.93;;;1.98;;
53108;SDS011;39007;53.090;6.074;2022-12-29T04:42:39;7.45;;;2.05;;
53108;SDS011;39007;53.090;6.074;2022-12-29T04:45:12;10.40;;;2.25;;
53108;SDS011;39007;53.090;6.074;2022-12-29T04:47:38;10.98;;;2.03;;
53108;SDS011;39007;53.090;6.074;2022-12-29T04:50:07;7.93;;;1.90;;
53108;SDS011;39007;53.090;6.074;2022-12-29T04:52:33;9.43;;;2.33;;
53108;SDS011;39007;53.090;6.074;2022-12-29T04:54:59;13.50;;;3.00;;
53108;SDS011;39007;53.090;6.074;2022-12-29T04:57:25;11.90;;;2.45;;
53108;SDS011;39007;53.090;6.074;2022-12-29T04:59:59;10.65;;;2.20;;
53108;SDS011;39007;53.090;6.074;2022-12-29T05:02:27;12.93;;;2.45;;
53108;SDS011;39007;53.090;6.074;2022-12-29T05:04:53;11.35;;;2.50;;
53108;SDS011;39007;53.090;6.074;2022-12-29T05:07:19;14.07;;;2.67;;
53108;SDS011;39007;53.090;6.074;2022-12-29T05:09:46;10.77;;;2.47;;
53108;SDS011;39007;53.090;6.074;2022-12-29T05:12:12;14.63;;;2.80;;
53108;SDS011;39007;53.090;6.074;2022-12-29T05:14:38;15.13;;;2.85;;
53108;SDS011;39007;53.090;6.074;2022-12-29T05:17:04;12.80;;;2.70;;
53108;SDS011;39007;53.090;6.074;2022-12-29T05:19:30;11.32;;;2.45;;
53108;SDS011;39007;53.090;6.074;2022-12-29T05:21:56;13.32;;;2.67;;
53108;SDS011;39007;53.090;6.074;2022-12-29T05:24:22;12.50;;;2.60;;
53108;SDS011;39007;53.090;6.074;2022-12-29T05:26:48;10.80;;;2.42;;
53108;SDS011;39007;53.090;6.074;2022-12-29T05:29:14;12.65;;;2.92;;
53108;SDS011;39007;53.090;6.074;2022-12-29T05:31:40;10.85;;;2.83;;
53108;SDS011;39007;53.090;6.074;2022-12-29T05:34:06;16.77;;;2.95;;
53108;SDS011;39007;53.090;6.074;2022-12-29T05:36:32;13.98;;;2.58;;
53108;SDS011;39007;53.090;6.074;2022-12-29T05:38:58;16.05;;;3.28;;
53108;SDS011;39007;53.090;6.074;2022-12-29T05:41:25;14.82;;;3.05;;
53108;SDS011;39007;53.090;6.074;2022-12-29T05:43:51;11.77;;;3.03;;
53108;SDS011;39007;53.090;6.074;2022-12-29T05:46:17;12.65;;;2.50;;
53108;SDS011;39007;53.090;6.074;2022-12-29T05:48:43;15.80;;;3.47;;
53108;SDS011;39007;53.090;6.074;2022-12-29T05:51:14;17.13;;;3.30;;
53108;SDS011;39007;53.090;6.074;2022-12-29T05:53:49;15.05;;;3.45;;
53108;SDS011;39007;53.090;6.074;2022-12-29T05:56:15;10.60;;;3.28;;
53108;SDS011;39007;53.090;6.074;2022-12-29T05:58:45;12.50;;;2.58;;
53108;SDS011;39007;53.090;6.074;2022-12-29T06:01:11;15.85;;;2.85;;
53108;SDS011;39007;53.090;6.074;2022-12-29T06:03:39;13.25;;;3.05;;
53108;SDS011;39007;53.090;6.074;2022-12-29T06:06:06;14.73;;;3.20;;
53108;SDS011;39007;53.090;6.074;2022-12-29T06:08:32;13.98;;;3.10;;
53108;SDS011;39007;53.090;6.074;2022-12-29T06:10:58;13.85;;;2.78;;
53108;SDS011;39007;53.090;6.074;2022-12-29T06:13:24;14.55;;;3.17;;
53108;SDS011;39007;53.090;6.074;2022-12-29T06:15:51;21.23;;;4.13;;
53108;SDS011;39007;53.090;6.074;2022-12-29T06:18:17;22.08;;;3.65;;
53108;SDS011;39007;53.090;6.074;2022-12-29T06:20:43;20.48;;;4.00;;
53108;SDS011;39007;53.090;6.074;2022-12-29T06:23:09;18.48;;;3.63;;
53108;SDS011;39007;53.090;6.074;2022-12-29T06:25:37;19.38;;;4.05;;
53108;SDS011;39007;53.090;6.074;2022-12-29T06:28:03;19.52;;;3.30;;
53108;SDS011;39007;53.090;6.074;2022-12-29T06:30:33;19.63;;;4.45;;
53108;SDS011;39007;53.090;6.074;2022-12-29T06:33:00;14.52;;;3.60;;
53108;SDS011;39007;53.090;6.074;2022-12-29T06:35:26;20.13;;;4.05;;
53108;SDS011;39007;53.090;6.074;2022-12-29T06:37:56;22.23;;;4.47;;
53108;SDS011;39007;53.090;6.074;2022-12-29T06:40:22;21.23;;;3.83;;
53108;SDS011;39007;53.090;6.074;2022-12-29T06:42:48;17.33;;;3.05;;
53108;SDS011;39007;53.090;6.074;2022-12-29T06:45:15;21.95;;;4.32;;
53108;SDS011;39007;53.090;6.074;2022-12-29T06:47:41;20.33;;;3.45;;
53108;SDS011;39007;53.090;6.074;2022-12-29T06:50:07;23.55;;;4.40;;
53108;SDS011;39007;53.090;6.074;2022-12-29T06:52:34;15.88;;;3.22;;
53108;SDS011;39007;53.090;6.074;2022-12-29T06:55:00;17.65;;;3.65;;
53108;SDS011;39007;53.090;6.074;2022-12-29T06:57:26;13.43;;;2.97;;
53108;SDS011;39007;53.090;6.074;2022-12-29T06:59:52;21.20;;;3.42;;
53108;SDS011;39007;53.090;6.074;2022-12-29T07:02:21;18.33;;;3.45;;
53108;SDS011;39007;53.090;6.074;2022-12-29T07:04:47;18.83;;;3.70;;
53108;SDS011;39007;53.090;6.074;2022-12-29T07:07:13;15.90;;;2.75;;
53108;SDS011;39007;53.090;6.074;2022-12-29T07:09:39;16.17;;;3.53;;
53108;SDS011;39007;53.090;6.074;2022-12-29T07:12:05;17.42;;;3.35;;
53108;SDS011;39007;53.090;6.074;2022-12-29T07:14:31;18.48;;;3.70;;
53108;SDS011;39007;53.090;6.074;2022-12-29T07:16:57;21.83;;;3.97;;
53108;SDS011;39007;53.090;6.074;2022-12-29T07:19:23;19.15;;;4.00;;
53108;SDS011;39007;53.090;6.074;2022-12-29T07:21:49;13.80;;;3.25;;
53108;SDS011;39007;53.090;6.074;2022-12-29T07:24:15;16.42;;;3.80;;
53108;SDS011;39007;53.090;6.074;2022-12-29T07:26:41;18.05;;;3.65;;
53108;SDS011;39007;53.090;6.074;2022-12-29T07:29:07;18.40;;;3.45;;
53108;SDS011;39007;53.090;6.074;2022-12-29T07:31:33;15.35;;;3.13;;
53108;SDS011;39007;53.090;6.074;2022-12-29T07:33:59;15.88;;;3.35;;
53108;SDS011;39007;53.090;6.074;2022-12-29T07:36:25;20.80;;;3.40;;
53108;SDS011;39007;53.090;6.074;2022-12-29T07:38:52;13.82;;;3.40;;
53108;SDS011;39007;53.090;6.074;2022-12-29T07:41:18;19.05;;;4.05;;
53108;SDS011;39007;53.090;6.074;2022-12-29T07:43:46;19.05;;;3.47;;
53108;SDS011;39007;53.090;6.074;2022-12-29T07:46:14;16.05;;;3.55;;
53108;SDS011;39007;53.090;6.074;2022-12-29T07:48:40;17.98;;;3.97;;
53108;SDS011;39007;53.090;6.074;2022-12-29T07:51:06;15.70;;;3.25;;
53108;SDS011;39007;53.090;6.074;2022-12-29T07:53:32;15.88;;;3.33;;
53108;SDS011;39007;53.090;6.074;2022-12-29T07:55:58;21.27;;;4.00;;
53108;SDS011;39007;53.090;6.074;2022-12-29T07:58:24;18.85;;;3.85;;
53108;SDS011;39007;53.090;6.074;2022-12-29T08:00:54;24.20;;;4.65;;
53108;SDS011;39007;53.090;6.074;2022-12-29T08:03:20;21.05;;;3.85;;
53108;SDS011;39007;53.090;6.074;2022-12-29T08:05:47;20.23;;;4.15;;
53108;SDS011;39007;53.090;6.074;2022-12-29T08:08:13;16.42;;;4.45;;
53108;SDS011;39007;53.090;6.074;2022-12-29T08:10:39;20.02;;;3.80;;
53108;SDS011;39007;53.090;6.074;2022-12-29T08:13:05;27.25;;;5.32;;
53108;SDS011;39007;53.090;6.074;2022-12-29T08:15:31;19.58;;;4.20;;
53108;SDS011;39007;53.090;6.074;2022-12-29T08:17:58;18.95;;;4.15;;
53108;SDS011;39007;53.090;6.074;2022-12-29T08:20:24;21.33;;;4.63;;
53108;SDS011;39007;53.090;6.074;2022-12-29T08:22:50;19.45;;;4.45;;
53108;SDS011;39007;53.090;6.074;2022-12-29T08:25:17;21.08;;;4.43;;
53108;SDS011;39007;53.090;6.074;2022-12-29T08:27:44;21.80;;;3.88;;
53108;SDS011;39007;53.090;6.074;2022-12-29T08:30:10;21.25;;;4.05;;
53108;SDS011;39007;53.090;6.074;2022-12-29T08:32:37;28.23;;;5.05;;
53108;SDS011;39007;53.090;6.074;2022-12-29T08:35:03;19.17;;;4.22;;
53108;SDS011;39007;53.090;6.074;2022-12-29T08:37:29;22.15;;;4.53;;
53108;SDS011;39007;53.090;6.074;2022-12-29T08:39:55;25.80;;;5.22;;
53108;SDS011;39007;53.090;6.074;2022-12-29T08:42:22;21.38;;;4.53;;
53108;SDS011;39007;53.090;6.074;2022-12-29T08:44:48;25.10;;;5.45;;
53108;SDS011;39007;53.090;6.074;2022-12-29T08:47:15;22.25;;;4.45;;
53108;SDS011;39007;53.090;6.074;2022-12-29T08:49:41;21.70;;;4.18;;
53108;SDS011;39007;53.090;6.074;2022-12-29T08:52:07;30.55;;;5.57;;
53108;SDS011;39007;53.090;6.074;2022-12-29T08:54:34;28.20;;;5.15;;
53108;SDS011;39007;53.090;6.074;2022-12-29T08:57:00;23.75;;;4.47;;
53108;SDS011;39007;53.090;6.074;2022-12-29T08:59:26;34.30;;;5.57;;
53108;SDS011;39007;53.090;6.074;2022-12-29T09:01:52;31.77;;;5.07;;
53108;SDS011;39007;53.090;6.074;2022-12-29T09:04:18;30.40;;;5.85;;
53108;SDS011;39007;53.090;6.074;2022-12-29T09:06:44;27.00;;;5.22;;
53108;SDS011;39007;53.090;6.074;2022-12-29T09:09:10;31.08;;;5.10;;
53108;SDS011;39007;53.090;6.074;2022-12-29T09:11:37;21.90;;;3.88;;
53108;SDS011;39007;53.090;6.074;2022-12-29T09:14:03;17.58;;;4.10;;
53108;SDS011;39007;53.090;6.074;2022-12-29T09:16:29;22.02;;;4.35;;
53108;SDS011;39007;53.090;6.074;2022-12-29T09:18:55;26.05;;;4.57;;
53108;SDS011;39007;53.090;6.074;2022-12-29T09:21:21;19.25;;;4.22;;
53108;SDS011;39007;53.090;6.074;2022-12-29T09:23:47;21.20;;;4.07;;
53108;SDS011;39007;53.090;6.074;2022-12-29T09:26:14;20.92;;;3.90;;
53108;SDS011;39007;53.090;6.074;2022-12-29T09:28:40;21.92;;;4.32;;
53108;SDS011;39007;53.090;6.074;2022-12-29T09:31:06;21.00;;;4.28;;
53108;SDS011;39007;53.090;6.074;2022-12-29T09:33:32;18.60;;;3.75;;
53108;SDS011;39007;53.090;6.074;2022-12-29T09:36:01;17.48;;;3.92;;
53108;SDS011;39007;53.090;6.074;2022-12-29T09:38:27;21.05;;;4.10;;
53108;SDS011;39007;53.090;6.074;2022-12-29T09:40:54;26.58;;;5.15;;
53108;SDS011;39007;53.090;6.074;2022-12-29T09:48:30;17.45;;;3.58;;
53108;SDS011;39007;53.090;6.074;2022-12-29T09:50:59;17.10;;;3.80;;
53108;SDS011;39007;53.090;6.074;2022-12-29T09:54:00;18.25;;;4.03;;
53108;SDS011;39007;53.090;6.074;2022-12-29T09:56:19;17.13;;;3.50;;
53108;SDS011;39007;53.090;6.074;2022-12-29T10:01:41;17.52;;;3.90;;
53108;SDS011;39007;53.090;6.074;2022-12-29T10:04:10;19.77;;;3.75;;
53108;SDS011;39007;53.090;6.074;2022-12-29T10:09:06;22.20;;;4.82;;
53108;SDS011;39007;53.090;6.074;2022-12-29T10:16:40;19.17;;;4.43;;
53108;SDS011;39007;53.090;6.074;2022-12-29T10:19:16;20.50;;;3.38;;
53108;SDS011;39007;53.090;6.074;2022-12-29T10:24:23;16.98;;;4.03;;
53108;SDS011;39007;53.090;6.074;2022-12-29T10:26:51;20.50;;;4.30;;
53108;SDS011;39007;53.090;6.074;2022-12-29T10:31:44;22.83;;;4.60;;
53108;SDS011;39007;53.090;6.074;2022-12-29T10:34:26;23.88;;;4.05;;
53108;SDS011;39007;53.090;6.074;2022-12-29T10:36:54;22.05;;;4.50;;
53108;SDS011;39007;53.090;6.074;2022-12-29T10:41:57;20.35;;;4.47;;
53108;SDS011;39007;53.090;6.074;2022-12-29T10:44:27;28.77;;;5.72;;
53108;SDS011;39007;53.090;6.074;2022-12-29T10:46:56;24.83;;;5.18;;
53108;SDS011;39007;53.090;6.074;2022-12-29T10:49:23;24.67;;;4.95;;
53108;SDS011;39007;53.090;6.074;2022-12-29T10:51:50;30.50;;;5.82;;
53108;SDS011;39007;53.090;6.074;2022-12-29T10:54:19;28.98;;;5.05;;
53108;SDS011;39007;53.090;6.074;2022-12-29T10:56:48;28.58;;;5.18;;
53108;SDS011;39007;53.090;6.074;2022-12-29T10:59:17;26.45;;;5.90;;
53108;SDS011;39007;53.090;6.074;2022-12-29T11:02:11;28.50;;;5.47;;
53108;SDS011;39007;53.090;6.074;2022-12-29T11:06:58;22.40;;;5.22;;
53108;SDS011;39007;53.090;6.074;2022-12-29T11:09:27;34.67;;;6.18;;
53108;SDS011;39007;53.090;6.074;2022-12-29T11:11:54;29.38;;;5.80;;
53108;SDS011;39007;53.090;6.074;2022-12-29T11:14:25;27.42;;;4.85;;
53108;SDS011;39007;53.090;6.074;2022-12-29T11:17:01;30.33;;;5.78;;
53108;SDS011;39007;53.090;6.074;2022-12-29T11:19:29;39.95;;;13.65;;
53108;SDS011;39007;53.090;6.074;2022-12-29T11:22:40;35.70;;;6.28;;
53108;SDS011;39007;53.090;6.074;2022-12-29T11:24:47;27.25;;;5.82;;
53108;SDS011;39007;53.090;6.074;2022-12-29T11:27:18;31.15;;;6.05;;
53108;SDS011;39007;53.090;6.074;2022-12-29T11:29:48;25.70;;;5.32;;
53108;SDS011;39007;53.090;6.074;2022-12-29T11:34:43;29.58;;;6.05;;
53108;SDS011;39007;53.090;6.074;2022-12-29T11:37:11;31.73;;;6.10;;
53108;SDS011;39007;53.090;6.074;2022-12-29T11:45:03;21.95;;;4.65;;
53108;SDS011;39007;53.090;6.074;2022-12-29T11:47:31;25.48;;;3.97;;
53108;SDS011;39007;53.090;6.074;2022-12-29T11:49:58;26.88;;;4.85;;
53108;SDS011;39007;53.090;6.074;2022-12-29T11:52:26;22.27;;;4.13;;
53108;SDS011;39007;53.090;6.074;2022-12-29T11:54:53;21.45;;;4.05;;
53108;SDS011;39007;53.090;6.074;2022-12-29T11:57:20;21.48;;;4.15;;
53108;SDS011;39007;53.090;6.074;2022-12-29T11:59:51;20.25;;;3.55;;
53108;SDS011;39007;53.090;6.074;2022-12-29T12:04:49;20.55;;;3.80;;
53108;SDS011;39007;53.090;6.074;2022-12-29T12:07:17;20.77;;;4.35;;
53108;SDS011;39007;53.090;6.074;2022-12-29T12:09:45;23.52;;;4.53;;
53108;SDS011;39007;53.090;6.074;2022-12-29T12:12:32;18.23;;;4.03;;
53108;SDS011;39007;53.090;6.074;2022-12-29T12:15:00;17.45;;;4.00;;
53108;SDS011;39007;53.090;6.074;2022-12-29T12:17:29;18.70;;;3.47;;
53108;SDS011;39007;53.090;6.074;2022-12-29T12:20:16;15.57;;;3.58;;
53108;SDS011;39007;53.090;6.074;2022-12-29T12:23:02;15.80;;;3.55;;
53108;SDS011;39007;53.090;6.074;2022-12-29T12:26:20;17.20;;;3.65;;
53108;SDS011;39007;53.090;6.074;2022-12-29T12:28:28;16.73;;;3.28;;
53108;SDS011;39007;53.090;6.074;2022-12-29T12:30:59;20.65;;;3.33;;
53108;SDS011;39007;53.090;6.074;2022-12-29T12:33:35;13.55;;;3.10;;
53108;SDS011;39007;53.090;6.074;2022-12-29T12:36:13;13.73;;;3.25;;
53108;SDS011;39007;53.090;6.074;2022-12-29T12:49:11;13.23;;;3.10;;
53108;SDS011;39007;53.090;6.074;2022-12-29T12:51:45;16.30;;;3.25;;
53108;SDS011;39007;53.090;6.074;2022-12-29T13:10:12;21.42;;;3.42;;
53108;SDS011;39007;53.090;6.074;2022-12-29T13:25:45;21.10;;;3.97;;
53108;SDS011;39007;53.090;6.074;2022-12-29T13:35:55;16.70;;;3.13;;
53108;SDS011;39007;53.090;6.074;2022-12-29T13:40:53;12.77;;;2.92;;
53108;SDS011;39007;53.090;6.074;2022-12-29T13:43:20;20.42;;;3.45;;
53108;SDS011;39007;53.090;6.074;2022-12-29T13:45:50;19.67;;;3.67;;
53108;SDS011;39007;53.090;6.074;2022-12-29T13:48:21;14.07;;;2.95;;
53108;SDS011;39007;53.090;6.074;2022-12-29T13:50:50;15.68;;;2.80;;
53108;SDS011;39007;53.090;6.074;2022-12-29T13:53:29;15.10;;;3.13;;
53108;SDS011;39007;53.090;6.074;2022-12-29T13:56:07;14.75;;;3.15;;
53108;SDS011;39007;53.090;6.074;2022-12-29T13:58:38;13.65;;;3.30;;
53108;SDS011;39007;53.090;6.074;2022-12-29T14:03:44;12.13;;;2.65;;
53108;SDS011;39007;53.090;6.074;2022-12-29T14:09:00;14.05;;;2.88;;
53108;SDS011;39007;53.090;6.074;2022-12-29T14:11:34;12.65;;;3.05;;
53108;SDS011;39007;53.090;6.074;2022-12-29T14:14:34;13.10;;;3.03;;
53108;SDS011;39007;53.090;6.074;2022-12-29T14:16:53;17.45;;;3.22;;
53108;SDS011;39007;53.090;6.074;2022-12-29T14:19:21;14.65;;;3.15;;
53108;SDS011;39007;53.090;6.074;2022-12-29T14:21:53;17.00;;;3.33;;
53108;SDS011;39007;53.090;6.074;2022-12-29T14:24:27;19.25;;;3.50;;
53108;SDS011;39007;53.090;6.074;2022-12-29T14:26:53;16.50;;;3.25;;
53108;SDS011;39007;53.090;6.074;2022-12-29T14:31:51;12.82;;;2.88;;
53108;SDS011;39007;53.090;6.074;2022-12-29T14:36:54;21.75;;;3.80;;
53108;SDS011;39007;53.090;6.074;2022-12-29T14:39:27;21.17;;;4.30;;
53108;SDS011;39007;53.090;6.074;2022-12-29T14:44:32;18.55;;;3.97;;
53108;SDS011;39007;53.090;6.074;2022-12-29T14:47:00;18.17;;;3.70;;
53108;SDS011;39007;53.090;6.074;2022-12-29T14:49:28;16.35;;;3.50;;
53108;SDS011;39007;53.090;6.074;2022-12-29T14:57:35;22.08;;;4.35;;
53108;SDS011;39007;53.090;6.074;2022-12-29T15:00:08;21.80;;;3.97;;
53108;SDS011;39007;53.090;6.074;2022-12-29T15:05:04;16.52;;;3.40;;
53108;SDS011;39007;53.090;6.074;2022-12-29T15:07:32;17.80;;;3.45;;
53108;SDS011;39007;53.090;6.074;2022-12-29T15:10:07;15.73;;;3.40;;
53108;SDS011;39007;53.090;6.074;2022-12-29T15:12:38;19.70;;;3.55;;
53108;SDS011;39007;53.090;6.074;2022-12-29T15:15:38;20.88;;;4.00;;
53108;SDS011;39007;53.090;6.074;2022-12-29T15:17:57;19.83;;;3.92;;
53108;SDS011;39007;53.090;6.074;2022-12-29T15:20:37;17.52;;;3.63;;
53108;SDS011;39007;53.090;6.074;2022-12-29T15:23:08;25.88;;;4.47;;
53108;SDS011;39007;53.090;6.074;2022-12-29T15:25:35;21.88;;;4.50;;
53108;SDS011;39007;53.090;6.074;2022-12-29T15:28:02;22.38;;;4.20;;
53108;SDS011;39007;53.090;6.074;2022-12-29T15:30:29;19.08;;;3.85;;
53108;SDS011;39007;53.090;6.074;2022-12-29T15:32:55;19.00;;;4.38;;
53108;SDS011;39007;53.090;6.074;2022-12-29T15:35:23;22.05;;;4.03;;
53108;SDS011;39007;53.090;6.074;2022-12-29T15:37:50;21.65;;;3.92;;
53108;SDS011;39007;53.090;6.074;2022-12-29T15:43:18;19.25;;;3.95;;
53108;SDS011;39007;53.090;6.074;2022-12-29T15:45:47;18.23;;;3.58;;
53108;SDS011;39007;53.090;6.074;2022-12-29T15:48:19;20.77;;;3.72;;
53108;SDS011;39007;53.090;6.074;2022-12-29T15:50:46;19.00;;;3.83;;
53108;SDS011;39007;53.090;6.074;2022-12-29T15:53:17;16.95;;;4.18;;
53108;SDS011;39007;53.090;6.074;2022-12-29T15:55:44;20.10;;;3.92;;
53108;SDS011;39007;53.090;6.074;2022-12-29T15:58:22;22.83;;;3.30;;
53108;SDS011;39007;53.090;6.074;2022-12-29T16:00:51;19.23;;;3.45;;
53108;SDS011;39007;53.090;6.074;2022-12-29T16:03:18;14.20;;;2.90;;
53108;SDS011;39007;53.090;6.074;2022-12-29T16:05:49;11.52;;;2.70;;
53108;SDS011;39007;53.090;6.074;2022-12-29T16:08:26;12.50;;;2.85;;
53108;SDS011;39007;53.090;6.074;2022-12-29T16:10:54;10.63;;;2.72;;
53108;SDS011;39007;53.090;6.074;2022-12-29T16:13:31;12.48;;;2.50;;
53108;SDS011;39007;53.090;6.074;2022-12-29T16:16:16;9.15;;;2.53;;
53108;SDS011;39007;53.090;6.074;2022-12-29T16:18:43;10.77;;;2.40;;
53108;SDS011;39007;53.090;6.074;2022-12-29T16:21:21;10.80;;;2.47;;
53108;SDS011;39007;53.090;6.074;2022-12-29T16:23:49;7.93;;;2.30;;
53108;SDS011;39007;53.090;6.074;2022-12-29T16:26:16;11.25;;;2.60;;
53108;SDS011;39007;53.090;6.074;2022-12-29T16:28:43;15.77;;;4.88;;
53108;SDS011;39007;53.090;6.074;2022-12-29T16:31:25;18.17;;;6.95;;
53108;SDS011;39007;53.090;6.074;2022-12-29T16:33:54;96.85;;;60.75;;
53108;SDS011;39007;53.090;6.074;2022-12-29T16:36:31;11.02;;;2.72;;
53108;SDS011;39007;53.090;6.074;2022-12-29T16:39:07;18.33;;;5.55;;
53108;SDS011;39007;53.090;6.074;2022-12-29T16:41:36;48.83;;;23.50;;
53108;SDS011;39007;53.090;6.074;2022-12-29T16:44:12;16.10;;;4.10;;
53108;SDS011;39007;53.090;6.074;2022-12-29T16:47:01;15.35;;;3.72;;
53108;SDS011;39007;53.090;6.074;2022-12-29T16:51:54;17.55;;;4.28;;
53108;SDS011;39007;53.090;6.074;2022-12-29T16:54:38;21.67;;;4.00;;
53108;SDS011;39007;53.090;6.074;2022-12-29T16:57:05;23.27;;;4.22;;
53108;SDS011;39007;53.090;6.074;2022-12-29T16:59:35;20.42;;;4.45;;
53108;SDS011;39007;53.090;6.074;2022-12-29T17:02:07;20.33;;;4.05;;
53108;SDS011;39007;53.090;6.074;2022-12-29T17:04:33;22.63;;;3.97;;
53108;SDS011;39007;53.090;6.074;2022-12-29T17:06:59;19.42;;;4.40;;
53108;SDS011;39007;53.090;6.074;2022-12-29T17:09:26;23.02;;;4.35;;
53108;SDS011;39007;53.090;6.074;2022-12-29T17:11:56;29.95;;;4.63;;
53108;SDS011;39007;53.090;6.074;2022-12-29T17:17:06;20.00;;;4.30;;
53108;SDS011;39007;53.090;6.074;2022-12-29T17:19:36;29.73;;;4.95;;
53108;SDS011;39007;53.090;6.074;2022-12-29T17:22:03;27.80;;;4.82;;